createdAt,value
2017-05-19T00:01:14.704Z,14.46
2017-05-19T00:02:36.908Z,14.42
2017-05-19T00:03:59.149Z,14.35
2017-05-19T00:05:21.354Z,14.32
2017-05-19T00:06:43.510Z,14.36
2017-05-19T00:08:05.011Z,14.33
2017-05-19T00:09:26.209Z,14.28
2017-05-19T00:10:48.069Z,14.29
2017-05-19T00:12:09.931Z,14.28
2017-05-19T00:13:31.752Z,14.17
2017-05-19T00:14:52.632Z,14.24
2017-05-19T00:16:15.092Z,14.2
2017-05-19T00:17:37.244Z,14.21
2017-05-19T00:18:58.762Z,14.29
2017-05-19T00:20:20.663Z,14.21
2017-05-19T00:21:42.500Z,14.21
2017-05-19T00:23:04.042Z,14.21
2017-05-19T00:24:26.182Z,14.2
2017-05-19T00:25:48.352Z,14.1
2017-05-19T00:27:10.930Z,14.07
2017-05-19T00:28:32.452Z,14.04
2017-05-19T00:29:54.710Z,13.97
2017-05-19T00:31:15.930Z,13.95
2017-05-19T00:32:38.211Z,13.79
2017-05-19T00:33:59.842Z,13.79
2017-05-19T00:35:22.000Z,13.81
2017-05-19T00:36:43.807Z,13.75
2017-05-19T00:38:06.368Z,13.63
2017-05-19T00:39:28.211Z,13.71
2017-05-19T00:40:50.397Z,13.69
2017-05-19T00:42:12.008Z,13.75
2017-05-19T00:43:34.737Z,13.75
2017-05-19T00:44:56.936Z,13.79
2017-05-19T00:46:18.547Z,13.78
2017-05-19T00:47:40.461Z,13.78
2017-05-19T00:49:02.062Z,13.95
2017-05-19T00:50:23.261Z,13.87
2017-05-19T00:51:45.411Z,13.88
2017-05-19T00:53:06.923Z,13.97
2017-05-19T00:54:29.068Z,13.92
2017-05-19T00:55:50.325Z,13.85
2017-05-19T00:57:12.488Z,13.85
2017-05-19T00:58:35.046Z,13.79
2017-05-19T00:59:57.663Z,13.82
2017-05-19T01:01:19.872Z,13.69
2017-05-19T01:02:41.731Z,13.69
2017-05-19T01:04:04.370Z,13.66
2017-05-19T01:05:26.030Z,13.6
2017-05-19T01:06:48.174Z,13.54
2017-05-19T01:08:10.018Z,13.51
2017-05-19T01:09:31.919Z,13.54
2017-05-19T01:10:54.461Z,13.46
2017-05-19T01:12:16.701Z,13.45
2017-05-19T01:13:38.521Z,13.48
2017-05-19T01:15:00.509Z,13.38
2017-05-19T01:16:22.657Z,13.45
2017-05-19T01:17:45.133Z,13.33
2017-05-19T01:19:06.061Z,13.33
2017-05-19T01:20:27.889Z,13.28
2017-05-19T01:21:50.049Z,13.29
2017-05-19T01:23:11.567Z,13.32
2017-05-19T01:24:33.439Z,13.29
2017-05-19T01:25:55.590Z,13.25
2017-05-19T01:27:17.682Z,13.32
2017-05-19T01:28:39.510Z,13.26
2017-05-19T01:30:00.710Z,13.29
2017-05-19T01:31:22.561Z,13.17
2017-05-19T01:32:44.683Z,13.26
2017-05-19T01:34:06.587Z,13.3
2017-05-19T01:35:28.796Z,13.32
2017-05-19T01:36:51.281Z,13.45
2017-05-19T01:38:13.819Z,13.38
2017-05-19T01:39:35.646Z,13.33
2017-05-19T01:40:57.469Z,13.38
2017-05-19T01:42:18.993Z,13.45
2017-05-19T01:43:41.450Z,13.36
2017-05-19T01:45:03.272Z,13.59
2017-05-19T01:46:25.088Z,13.51
2017-05-19T01:47:47.546Z,13.46
2017-05-19T01:49:09.730Z,13.44
2017-05-19T01:50:31.557Z,13.46
2017-05-19T01:51:52.433Z,13.49
2017-05-19T01:53:13.628Z,13.51
2017-05-19T01:54:35.444Z,13.42
2017-05-19T01:55:57.279Z,13.48
2017-05-19T01:57:18.867Z,13.48
2017-05-19T01:58:40.835Z,13.36
2017-05-19T02:00:02.923Z,13.52
2017-05-19T02:01:25.110Z,13.45
2017-05-19T02:02:46.930Z,13.51
2017-05-19T02:04:08.469Z,13.55
2017-05-19T02:05:30.274Z,13.51
2017-05-19T02:06:52.098Z,13.62
2017-05-19T02:08:13.625Z,13.62
2017-05-19T02:09:35.770Z,13.57
2017-05-19T02:10:58.530Z,13.62
2017-05-19T02:12:20.376Z,13.66
2017-05-19T02:13:42.220Z,13.59
2017-05-19T02:15:03.749Z,13.66
2017-05-19T02:16:25.210Z,13.67
2017-05-19T02:17:46.789Z,13.63
2017-05-19T02:19:08.619Z,13.52
2017-05-19T02:20:31.120Z,13.46
2017-05-19T02:21:53.578Z,13.48
2017-05-19T02:23:15.728Z,13.51
2017-05-19T02:24:37.972Z,13.6
2017-05-19T02:26:00.120Z,13.6
2017-05-19T02:27:21.860Z,13.6
2017-05-19T02:28:43.687Z,13.6
2017-05-19T02:30:06.147Z,13.57
2017-05-19T02:31:27.646Z,13.63
2017-05-19T02:32:49.488Z,13.59
2017-05-19T02:34:11.324Z,13.63
2017-05-19T02:35:33.810Z,13.66
2017-05-19T02:36:56.020Z,13.6
2017-05-19T02:38:18.105Z,13.57
2017-05-19T02:39:40.260Z,13.57
2017-05-19T02:41:02.162Z,13.63
2017-05-19T02:42:24.050Z,13.62
2017-05-19T02:43:46.446Z,13.59
2017-05-19T02:45:08.385Z,13.62
2017-05-19T02:46:30.199Z,13.6
2017-05-19T02:47:51.719Z,13.62
2017-05-19T02:49:13.170Z,13.69
2017-05-19T02:50:35.377Z,13.7
2017-05-19T02:51:56.941Z,13.64
2017-05-19T02:53:18.787Z,13.71
2017-05-19T02:54:40.975Z,13.62
2017-05-19T02:56:03.130Z,13.57
2017-05-19T02:57:25.287Z,13.62
2017-05-19T02:58:47.781Z,13.66
2017-05-19T03:00:09.744Z,13.67
2017-05-19T03:01:32.308Z,13.57
2017-05-19T03:02:53.820Z,13.57
2017-05-19T03:04:15.676Z,13.66
2017-05-19T03:05:37.850Z,13.62
2017-05-19T03:06:59.688Z,13.67
2017-05-19T03:08:21.854Z,13.78
2017-05-19T03:09:43.057Z,13.66
2017-05-19T03:11:05.608Z,13.73
2017-05-19T03:12:26.601Z,13.79
2017-05-19T03:13:47.488Z,13.82
2017-05-19T03:15:08.770Z,13.82
2017-05-19T03:16:30.904Z,13.87
2017-05-19T03:17:51.786Z,13.96
2017-05-19T03:19:13.320Z,13.92
2017-05-19T03:20:35.165Z,13.92
2017-05-19T03:21:57.038Z,14.04
2017-05-19T03:23:18.668Z,14.09
2017-05-19T03:24:40.883Z,14.17
2017-05-19T03:26:02.720Z,14.1
2017-05-19T03:27:25.020Z,14.14
2017-05-19T03:28:47.502Z,14.06
2017-05-19T03:30:09.339Z,14.09
2017-05-19T03:31:31.191Z,14.12
2017-05-19T03:32:53.607Z,14.14
2017-05-19T03:34:15.426Z,14.18
2017-05-19T03:35:36.669Z,14.21
2017-05-19T03:36:58.922Z,14.25
2017-05-19T03:38:21.042Z,14.14
2017-05-19T03:39:43.282Z,14.12
2017-05-19T03:41:05.209Z,14.07
2017-05-19T03:42:26.732Z,14.18
2017-05-19T03:43:48.851Z,14.2
2017-05-19T03:45:11.023Z,14.22
2017-05-19T03:46:32.879Z,14.14
2017-05-19T03:47:54.490Z,14.27
2017-05-19T03:49:16.643Z,14.21
2017-05-19T03:50:37.843Z,14.24
2017-05-19T03:51:59.357Z,14.24
2017-05-19T03:53:21.209Z,14.27
2017-05-19T03:54:43.389Z,14.27
2017-05-19T03:56:05.533Z,14.36
2017-05-19T03:57:27.979Z,14.32
2017-05-19T03:58:49.810Z,14.33
2017-05-19T04:00:12.766Z,14.29
2017-05-19T04:01:34.922Z,14.39
2017-05-19T04:02:56.450Z,14.4
2017-05-19T04:04:17.971Z,14.46
2017-05-19T04:05:40.469Z,14.36
2017-05-19T04:07:02.296Z,14.39
2017-05-19T04:08:24.120Z,14.52
2017-05-19T04:09:46.430Z,14.52
2017-05-19T04:11:09.009Z,14.55
2017-05-19T04:12:30.867Z,14.65
2017-05-19T04:13:53.040Z,14.6
2017-05-19T04:15:15.234Z,14.58
2017-05-19T04:16:37.954Z,14.65
2017-05-19T04:17:59.860Z,14.73
2017-05-19T04:19:21.699Z,14.69
2017-05-19T04:20:43.870Z,14.73
2017-05-19T04:22:06.685Z,14.7
2017-05-19T04:23:28.205Z,14.77
2017-05-19T04:24:50.400Z,14.8
2017-05-19T04:26:12.725Z,14.8
2017-05-19T04:27:34.647Z,14.77
2017-05-19T04:28:56.176Z,14.78
2017-05-19T04:30:18.016Z,14.83
2017-05-19T04:31:39.841Z,14.83
2017-05-19T04:33:02.031Z,14.83
2017-05-19T04:34:24.213Z,14.78
2017-05-19T04:35:46.062Z,14.83
2017-05-19T04:37:07.573Z,14.83
2017-05-19T04:38:29.551Z,14.83
2017-05-19T04:39:51.391Z,14.86
2017-05-19T04:41:13.558Z,14.81
2017-05-19T04:42:35.419Z,14.8
2017-05-19T04:43:57.518Z,14.78
2017-05-19T04:45:19.049Z,14.91
2017-05-19T04:46:40.572Z,14.81
2017-05-19T04:48:03.077Z,14.92
2017-05-19T04:49:25.845Z,14.96
2017-05-19T04:50:47.781Z,14.99
2017-05-19T04:52:09.716Z,15.09
2017-05-19T04:53:31.871Z,14.95
2017-05-19T04:54:54.024Z,14.92
2017-05-19T04:56:16.576Z,15.02
2017-05-19T04:57:38.408Z,15.14
2017-05-19T04:58:59.921Z,15.02
2017-05-19T05:00:22.737Z,15.13
2017-05-19T05:01:45.209Z,15.06
2017-05-19T05:03:07.353Z,15.14
2017-05-19T05:04:29.512Z,15.17
2017-05-19T05:05:51.652Z,15.21
2017-05-19T05:07:13.638Z,15.2
2017-05-19T05:08:35.250Z,15.34
2017-05-19T05:09:56.796Z,15.39
2017-05-19T05:11:19.640Z,15.35
2017-05-19T05:12:41.477Z,15.43
2017-05-19T05:14:03.061Z,15.39
2017-05-19T05:15:25.236Z,15.43
2017-05-19T05:16:47.989Z,15.39
2017-05-19T05:18:09.831Z,15.47
2017-05-19T05:19:31.661Z,15.39
2017-05-19T05:20:53.508Z,15.36
2017-05-19T05:22:16.280Z,15.32
2017-05-19T05:23:38.480Z,15.34
2017-05-19T05:25:01.079Z,15.28
2017-05-19T05:26:23.233Z,15.28
2017-05-19T05:27:45.690Z,15.38
2017-05-19T05:29:07.875Z,15.34
2017-05-19T05:30:29.500Z,15.34
2017-05-19T05:31:51.345Z,15.46
2017-05-19T05:33:13.758Z,15.51
2017-05-19T05:34:35.596Z,15.57
2017-05-19T05:35:57.115Z,15.67
2017-05-19T05:37:18.943Z,15.67
2017-05-19T05:38:41.075Z,15.62
2017-05-19T05:40:02.649Z,15.69
2017-05-19T05:41:24.535Z,15.8
2017-05-19T05:42:46.696Z,15.89
2017-05-19T05:44:08.520Z,16
2017-05-19T05:45:30.681Z,16.09
2017-05-19T05:46:52.518Z,16.27
2017-05-19T05:48:14.719Z,16.45
2017-05-19T05:49:37.453Z,16.64
2017-05-19T05:50:58.972Z,16.61
2017-05-19T05:52:20.499Z,16.68
2017-05-19T05:53:42.672Z,16.68
2017-05-19T05:55:04.798Z,16.76
2017-05-19T05:56:26.699Z,16.82
2017-05-19T05:57:49.202Z,16.88
2017-05-19T05:59:11.677Z,16.88
2017-05-19T06:00:34.198Z,16.93
2017-05-19T06:01:56.032Z,16.88
2017-05-19T06:03:18.503Z,16.88
2017-05-19T06:04:40.988Z,16.93
2017-05-19T06:06:02.753Z,17
2017-05-19T06:07:24.648Z,17.07
2017-05-19T06:08:47.117Z,17.15
2017-05-19T06:10:09.270Z,17.22
2017-05-19T06:11:31.180Z,17.28
2017-05-19T06:12:52.859Z,17.46
2017-05-19T06:14:15.329Z,17.56
2017-05-19T06:15:36.240Z,17.68
2017-05-19T06:16:58.410Z,17.75
2017-05-19T06:18:20.680Z,17.87
2017-05-19T06:19:43.196Z,17.9
2017-05-19T06:21:05.370Z,18.07
2017-05-19T06:22:27.997Z,18.18
2017-05-19T06:23:49.201Z,18.23
2017-05-19T06:25:11.449Z,18.15
2017-05-19T06:26:33.950Z,18.3
2017-05-19T06:27:55.774Z,18.51
2017-05-19T06:29:17.961Z,18.57
2017-05-19T06:30:39.549Z,18.67
2017-05-19T06:32:01.210Z,18.72
2017-05-19T06:33:23.348Z,18.82
2017-05-19T06:34:45.518Z,18.85
2017-05-19T06:36:07.050Z,18.84
2017-05-19T06:37:29.253Z,18.85
2017-05-19T06:38:51.353Z,18.99
2017-05-19T06:40:13.504Z,18.94
2017-05-19T06:41:35.661Z,19.02
2017-05-19T06:42:57.891Z,19.11
2017-05-19T06:44:19.678Z,19.08
2017-05-19T06:45:42.141Z,19.36
2017-05-19T06:47:03.990Z,19.4
2017-05-19T06:48:25.569Z,19.59
2017-05-19T06:49:47.981Z,19.71
2017-05-19T06:51:09.211Z,19.87
2017-05-19T06:52:31.068Z,20.06
2017-05-19T06:53:52.911Z,20.03
2017-05-19T06:55:15.058Z,20.05
2017-05-19T06:56:37.201Z,20.13
2017-05-19T06:57:58.753Z,20.18
2017-05-19T06:59:20.975Z,20.2
2017-05-19T07:00:43.447Z,20.17
2017-05-19T07:02:05.942Z,20.31
2017-05-19T07:03:28.419Z,20.54
2017-05-19T07:04:50.367Z,20.74
2017-05-19T07:06:13.190Z,20.95
2017-05-19T07:07:34.820Z,20.89
2017-05-19T07:08:56.732Z,21.17
2017-05-19T07:10:18.988Z,21.31
2017-05-19T07:11:41.397Z,21.34
2017-05-19T07:13:02.982Z,21.28
2017-05-19T07:14:25.550Z,22.12
2017-05-19T07:15:48.014Z,22.22
2017-05-19T07:17:09.901Z,22.62
2017-05-19T07:18:32.450Z,22.91
2017-05-19T07:19:54.949Z,22.92
2017-05-19T07:21:16.789Z,23.02
2017-05-19T07:22:38.641Z,22.92
2017-05-19T07:24:00.501Z,22.88
2017-05-19T07:25:22.045Z,23.27
2017-05-19T07:26:43.888Z,23.2
2017-05-19T07:28:06.283Z,23.15
2017-05-19T07:29:28.752Z,23.05
2017-05-19T07:30:50.910Z,23.01
2017-05-19T07:32:13.120Z,23.1
2017-05-19T07:33:35.670Z,23.69
2017-05-19T07:34:57.840Z,24.58
2017-05-19T07:36:20.023Z,26.47
2017-05-19T07:37:41.889Z,28.48
2017-05-19T07:39:04.617Z,29.27
2017-05-19T07:40:26.801Z,28.88
2017-05-19T07:41:48.669Z,29.14
2017-05-19T07:43:10.520Z,29.63
2017-05-19T07:44:32.761Z,30.19
2017-05-19T07:45:54.391Z,31.06
2017-05-19T07:47:16.241Z,32.32
2017-05-19T07:48:38.397Z,33.37
2017-05-19T07:50:00.672Z,34.39
2017-05-19T07:51:22.619Z,34.89
2017-05-19T07:52:44.233Z,34.82
2017-05-19T07:54:06.770Z,34.62
2017-05-19T07:55:29.230Z,34.91
2017-05-19T07:56:51.092Z,34.75
2017-05-19T07:58:13.350Z,33.5
2017-05-19T07:59:35.513Z,32.75
2017-05-19T08:00:57.698Z,32.18
2017-05-19T08:02:19.890Z,32.18
2017-05-19T08:03:42.059Z,32.15
2017-05-19T08:05:04.808Z,31.89
2017-05-19T08:06:26.787Z,31.31
2017-05-19T08:07:49.301Z,30.95
2017-05-19T08:09:11.459Z,30.64
2017-05-19T08:10:33.320Z,30.37
2017-05-19T08:11:55.739Z,29.97
2017-05-19T08:13:18.240Z,29.78
2017-05-19T08:14:40.165Z,29.49
2017-05-19T08:16:01.702Z,29.05
2017-05-19T08:17:23.813Z,28.85
2017-05-19T08:18:45.998Z,28.66
2017-05-19T08:20:07.940Z,28.22
2017-05-19T08:21:30.190Z,27.94
2017-05-19T08:22:52.135Z,27.37
2017-05-19T08:24:14.012Z,26.91
2017-05-19T08:25:35.874Z,26.88
2017-05-19T08:26:58.167Z,26.88
2017-05-19T08:28:21.059Z,26.94
2017-05-19T08:29:42.277Z,27.1
2017-05-19T08:31:04.121Z,27.25
2017-05-19T08:32:26.267Z,27.28
2017-05-19T08:33:47.450Z,27.28
2017-05-19T08:35:09.087Z,27.17
2017-05-19T08:36:31.338Z,27.22
2017-05-19T08:37:53.526Z,27.25
2017-05-19T08:39:15.791Z,27.18
2017-05-19T08:40:37.949Z,26.97
2017-05-19T08:42:00.427Z,26.97
2017-05-19T08:43:22.331Z,26.95
2017-05-19T08:44:44.479Z,27.04
2017-05-19T08:46:06.747Z,27.22
2017-05-19T08:47:28.329Z,27.19
2017-05-19T08:48:50.630Z,27.07
2017-05-19T08:50:12.778Z,26.84
2017-05-19T08:51:34.639Z,26.69
2017-05-19T08:52:56.348Z,26.58
2017-05-19T08:54:17.563Z,26.66
2017-05-19T08:55:39.768Z,26.73
2017-05-19T08:57:01.680Z,26.69
2017-05-19T08:58:23.260Z,26.67
2017-05-19T08:59:45.140Z,26.69
2017-05-19T09:01:07.755Z,26.82
2017-05-19T09:02:29.682Z,26.89
2017-05-19T09:03:52.269Z,26.76
2017-05-19T09:05:13.485Z,26.63
2017-05-19T09:06:35.639Z,26.66
2017-05-19T09:07:57.175Z,26.66
2017-05-19T09:09:19.468Z,26.54
2017-05-19T09:10:41.498Z,26.39
2017-05-19T09:12:03.701Z,26.37
2017-05-19T09:13:25.899Z,26.29
2017-05-19T09:14:47.740Z,26.28
2017-05-19T09:16:09.905Z,26.45
2017-05-19T09:17:32.020Z,26.51
2017-05-19T09:18:54.211Z,26.44
2017-05-19T09:20:16.511Z,26.45
2017-05-19T09:21:39.023Z,26.33
2017-05-19T09:23:01.147Z,26.36
2017-05-19T09:24:23.600Z,26.32
2017-05-19T09:25:45.821Z,26.29
2017-05-19T09:27:07.133Z,26.36
2017-05-19T09:28:29.382Z,26.29
2017-05-19T09:29:51.539Z,26.26
2017-05-19T09:31:13.813Z,26.28
2017-05-19T09:32:35.683Z,26.2
2017-05-19T09:33:57.820Z,25.95
2017-05-19T09:35:20.310Z,25.62
2017-05-19T09:36:41.944Z,25.4
2017-05-19T09:38:04.150Z,25.24
2017-05-19T09:39:26.347Z,25.14
2017-05-19T09:40:47.697Z,25.25
2017-05-19T09:42:09.550Z,25.18
2017-05-19T09:43:31.760Z,25.05
2017-05-19T09:44:54.391Z,24.98
2017-05-19T09:46:16.562Z,24.64
2017-05-19T09:47:38.719Z,24.32
2017-05-19T09:49:00.633Z,24.31
2017-05-19T09:50:22.749Z,24.09
2017-05-19T09:51:44.684Z,24.1
2017-05-19T09:53:06.288Z,24.08
2017-05-19T09:54:28.456Z,24.06
2017-05-19T09:55:50.658Z,24.16
2017-05-19T09:57:12.228Z,24.02
2017-05-19T09:58:34.717Z,23.98
2017-05-19T09:59:56.589Z,24.06
2017-05-19T10:01:18.490Z,24.24
2017-05-19T10:02:40.775Z,24.28
2017-05-19T10:04:02.299Z,24.24
2017-05-19T10:05:23.189Z,24.27
2017-05-19T10:06:45.618Z,24.32
2017-05-19T10:08:07.485Z,24.39
2017-05-19T10:09:29.352Z,24.4
2017-05-19T10:10:51.832Z,24.35
2017-05-19T10:12:14.570Z,24.37
2017-05-19T10:13:36.884Z,24.4
2017-05-19T10:14:58.820Z,24.4
2017-05-19T10:16:20.430Z,24.42
2017-05-19T10:17:43.040Z,24.6
2017-05-19T10:19:05.200Z,24.87
2017-05-19T10:20:27.435Z,25.21
2017-05-19T10:21:49.279Z,25.36
2017-05-19T10:23:11.416Z,25.52
2017-05-19T10:24:33.319Z,25.4
2017-05-19T10:25:55.179Z,25.36
2017-05-19T10:27:17.036Z,25.46
2017-05-19T10:28:39.929Z,25.46
2017-05-19T10:30:02.416Z,25.65
2017-05-19T10:31:23.634Z,25.94
2017-05-19T10:32:44.858Z,26.1
2017-05-19T10:34:06.426Z,26.23
2017-05-19T10:35:28.676Z,26.15
2017-05-19T10:36:50.849Z,26.28
2017-05-19T10:38:13.027Z,26.32
2017-05-19T10:39:35.498Z,26.32
2017-05-19T10:40:58.080Z,26.36
2017-05-19T10:42:20.251Z,26.12
2017-05-19T10:43:42.147Z,26.06
2017-05-19T10:45:03.939Z,25.95
2017-05-19T10:46:26.103Z,25.95
2017-05-19T10:47:48.589Z,25.87
2017-05-19T10:49:10.826Z,25.67
2017-05-19T10:50:32.287Z,25.4
2017-05-19T10:51:54.146Z,25.15
2017-05-19T10:53:16.298Z,25.15
2017-05-19T10:54:37.510Z,25.21
2017-05-19T10:56:00.293Z,25.13
2017-05-19T10:57:22.150Z,25.13
2017-05-19T10:58:44.310Z,24.98
2017-05-19T11:00:06.512Z,24.96
2017-05-19T11:01:28.751Z,24.81
2017-05-19T11:02:50.761Z,24.58
2017-05-19T11:04:13.268Z,24.5
2017-05-19T11:05:35.116Z,24.39
2017-05-19T11:06:57.582Z,24.28
2017-05-19T11:08:19.785Z,24.12
2017-05-19T11:09:41.650Z,24
2017-05-19T11:11:03.948Z,23.97
2017-05-19T11:12:26.370Z,23.91
2017-05-19T11:13:48.966Z,23.69
2017-05-19T11:15:11.454Z,23.48
2017-05-19T11:16:33.308Z,23.54
2017-05-19T11:17:55.493Z,23.85
2017-05-19T11:19:17.008Z,23.88
2017-05-19T11:20:39.288Z,24.09
2017-05-19T11:22:00.808Z,24.1
2017-05-19T11:23:23.018Z,24.21
2017-05-19T11:24:45.195Z,24.31
2017-05-19T11:26:07.741Z,24.73
2017-05-19T11:27:29.907Z,25.1
2017-05-19T11:28:52.019Z,25.51
2017-05-19T11:30:14.252Z,25.9
2017-05-19T11:31:36.742Z,25.76
2017-05-19T11:32:58.921Z,26.01
2017-05-19T11:34:21.100Z,26.45
2017-05-19T11:35:43.738Z,26.47
2017-05-19T11:37:06.249Z,26.6
2017-05-19T11:38:28.762Z,26.73
2017-05-19T11:39:51.192Z,26.82
2017-05-19T11:41:13.375Z,27.12
2017-05-19T11:42:35.295Z,27.04
2017-05-19T11:43:57.170Z,27.09
2017-05-19T11:45:19.970Z,27.1
2017-05-19T11:46:41.822Z,26.65
2017-05-19T11:48:04.310Z,25.98
2017-05-19T11:49:26.490Z,25.25
2017-05-19T11:50:48.669Z,24.77
2017-05-19T11:52:10.568Z,24.31
2017-05-19T11:53:32.090Z,23.72
2017-05-19T11:54:53.968Z,23.27
2017-05-19T11:56:16.424Z,23.23
2017-05-19T11:57:38.769Z,23.33
2017-05-19T11:59:01.325Z,23.33
2017-05-19T12:00:23.891Z,23.09
2017-05-19T12:01:46.428Z,22.91
2017-05-19T12:03:08.296Z,22.39
2017-05-19T12:04:30.490Z,21.98
2017-05-19T12:05:52.668Z,21.67
2017-05-19T12:07:15.111Z,21.35
2017-05-19T12:08:37.297Z,21.32
2017-05-19T12:09:59.558Z,21.43
2017-05-19T12:11:21.109Z,21.43
2017-05-19T12:12:43.610Z,21.56
2017-05-19T12:14:05.842Z,21.84
2017-05-19T12:15:27.782Z,21.98
2017-05-19T12:16:50.257Z,22.15
2017-05-19T12:18:12.789Z,22.2
2017-05-19T12:19:35.289Z,22.07
2017-05-19T12:20:57.126Z,22.05
2017-05-19T12:22:19.302Z,21.92
2017-05-19T12:23:42.251Z,22.03
2017-05-19T12:25:04.540Z,21.98
2017-05-19T12:26:26.707Z,22.2
2017-05-19T12:27:48.896Z,22.21
2017-05-19T12:29:10.819Z,22
2017-05-19T12:30:32.658Z,22.02
2017-05-19T12:31:54.517Z,21.98
2017-05-19T12:33:16.380Z,21.99
2017-05-19T12:34:39.170Z,22.05
2017-05-19T12:36:01.711Z,22.06
2017-05-19T12:37:24.198Z,22.02
2017-05-19T12:38:46.361Z,22
2017-05-19T12:40:08.515Z,21.99
2017-05-19T12:41:30.744Z,22
2017-05-19T12:42:52.965Z,21.88
2017-05-19T12:44:14.801Z,21.44
2017-05-19T12:45:37.210Z,21.19
2017-05-19T12:46:59.078Z,20.89
2017-05-19T12:48:20.960Z,20.76
2017-05-19T12:49:42.900Z,20.59
2017-05-19T12:51:04.718Z,20.57
2017-05-19T12:52:25.925Z,20.54
2017-05-19T12:53:47.797Z,20.66
2017-05-19T12:55:10.004Z,20.61
2017-05-19T12:56:32.159Z,20.55
2017-05-19T12:57:53.720Z,20.33
2017-05-19T12:59:15.575Z,20.23
2017-05-19T13:00:37.420Z,20.26
2017-05-19T13:01:59.963Z,20.11
2017-05-19T13:03:21.792Z,20.08
2017-05-19T13:04:43.791Z,19.95
2017-05-19T13:06:05.769Z,19.98
2017-05-19T13:07:27.878Z,19.87
2017-05-19T13:08:49.854Z,19.74
2017-05-19T13:10:12.187Z,19.58
2017-05-19T13:11:34.049Z,19.44
2017-05-19T13:12:56.837Z,19.43
2017-05-19T13:14:18.370Z,19.4
2017-05-19T13:15:40.879Z,19.44
2017-05-19T13:17:03.481Z,19.44
2017-05-19T13:18:26.021Z,19.44
2017-05-19T13:19:47.968Z,19.39
2017-05-19T13:21:10.469Z,19.39
2017-05-19T13:22:32.963Z,19.5
2017-05-19T13:23:55.421Z,19.43
2017-05-19T13:25:16.960Z,19.46
2017-05-19T13:26:39.522Z,19.47
2017-05-19T13:28:01.839Z,19.46
2017-05-19T13:29:24.625Z,19.47
2017-05-19T13:30:46.891Z,19.46
2017-05-19T13:32:09.450Z,19.51
2017-05-19T13:33:31.324Z,19.58
2017-05-19T13:34:53.471Z,19.5
2017-05-19T13:36:15.978Z,19.41
2017-05-19T13:37:38.464Z,19.44
2017-05-19T13:39:01.050Z,19.43
2017-05-19T13:40:23.839Z,19.56
2017-05-19T13:41:45.437Z,19.44
2017-05-19T13:43:07.293Z,19.43
2017-05-19T13:44:29.797Z,19.54
2017-05-19T13:45:52.281Z,19.56
2017-05-19T13:47:14.468Z,19.68
2017-05-19T13:48:36.319Z,19.69
2017-05-19T13:49:58.501Z,19.76
2017-05-19T13:51:20.931Z,19.73
2017-05-19T13:52:43.439Z,19.88
2017-05-19T13:54:05.004Z,19.98
2017-05-19T13:55:27.513Z,19.94
2017-05-19T13:56:49.726Z,19.77
2017-05-19T13:58:12.212Z,19.73
2017-05-19T13:59:34.379Z,19.69
2017-05-19T14:00:56.934Z,19.69
2017-05-19T14:02:19.089Z,19.62
2017-05-19T14:03:40.990Z,19.56
2017-05-19T14:05:03.261Z,19.44
2017-05-19T14:06:25.534Z,19.37
2017-05-19T14:07:48.078Z,19.37
2017-05-19T14:09:09.982Z,19.33
2017-05-19T14:10:34.069Z,19.13
2017-05-19T14:11:56.597Z,19.21
2017-05-19T14:13:18.728Z,19.06
2017-05-19T14:14:40.577Z,18.92
2017-05-19T14:16:02.106Z,18.94
2017-05-19T14:17:24.671Z,18.84
2017-05-19T14:18:46.849Z,18.8
2017-05-19T14:20:09.029Z,18.76
2017-05-19T14:21:30.902Z,18.6
2017-05-19T14:22:53.542Z,18.6
2017-05-19T14:24:16.269Z,18.52
2017-05-19T14:25:38.555Z,18.5
2017-05-19T14:27:00.420Z,18.48
2017-05-19T14:28:21.970Z,18.48
2017-05-19T14:29:44.531Z,18.41
2017-05-19T14:31:06.760Z,18.3
2017-05-19T14:32:28.948Z,18.32
2017-05-19T14:33:51.131Z,18.3
2017-05-19T14:35:12.918Z,18.23
2017-05-19T14:36:35.421Z,18.21
2017-05-19T14:37:57.609Z,18.2
2017-05-19T14:39:19.790Z,18.26
2017-05-19T14:40:41.399Z,18.2
2017-05-19T14:42:03.656Z,18.14
2017-05-19T14:43:25.898Z,18.1
2017-05-19T14:44:48.184Z,18.07
2017-05-19T14:46:10.962Z,17.9
2017-05-19T14:47:32.909Z,17.87
2017-05-19T14:48:54.439Z,17.78
2017-05-19T14:50:16.278Z,17.74
2017-05-19T14:51:38.739Z,17.59
2017-05-19T14:53:00.951Z,17.68
2017-05-19T14:54:22.889Z,17.74
2017-05-19T14:55:44.769Z,17.56
2017-05-19T14:57:06.888Z,17.52
2017-05-19T14:58:29.361Z,17.51
2017-05-19T14:59:51.536Z,17.56
2017-05-19T15:01:14.026Z,17.52
2017-05-19T15:02:35.901Z,17.52
2017-05-19T15:03:57.473Z,17.54
2017-05-19T15:05:20.149Z,17.49
2017-05-19T15:06:42.319Z,17.46
2017-05-19T15:08:04.133Z,17.48
2017-05-19T15:09:26.361Z,17.46
2017-05-19T15:10:47.941Z,17.43
2017-05-19T15:12:10.409Z,17.41
2017-05-19T15:13:32.587Z,17.31
2017-05-19T15:14:54.753Z,17.33
2017-05-19T15:16:16.996Z,17.3
2017-05-19T15:17:39.163Z,17.31
2017-05-19T15:19:01.690Z,17.38
2017-05-19T15:20:23.021Z,17.37
2017-05-19T15:21:45.255Z,17.36
2017-05-19T15:23:07.286Z,17.38
2017-05-19T15:24:29.483Z,17.48
2017-05-19T15:25:51.739Z,17.51
2017-05-19T15:27:13.952Z,17.41
2017-05-19T15:28:35.947Z,17.48
2017-05-19T15:29:58.780Z,17.49
2017-05-19T15:31:21.379Z,17.51
2017-05-19T15:32:43.722Z,17.46
2017-05-19T15:34:06.199Z,17.49
2017-05-19T15:35:28.389Z,17.55
2017-05-19T15:36:50.535Z,17.31
2017-05-19T15:38:12.400Z,17.26
2017-05-19T15:39:34.253Z,17.23
2017-05-19T15:40:56.746Z,17.16
2017-05-19T15:42:19.010Z,17.11
2017-05-19T15:43:41.595Z,17.12
2017-05-19T15:45:03.602Z,17.11
2017-05-19T15:46:26.079Z,17.11
2017-05-19T15:47:48.106Z,17
2017-05-19T15:49:10.277Z,16.97
2017-05-19T15:50:32.900Z,16.91
2017-05-19T15:51:55.514Z,16.85
2017-05-19T15:53:18.126Z,16.83
2017-05-19T15:54:40.321Z,16.67
2017-05-19T15:56:02.843Z,16.68
2017-05-19T15:57:24.789Z,16.63
2017-05-19T15:58:47.371Z,16.56
2017-05-19T16:00:09.742Z,16.56
2017-05-19T16:01:31.821Z,16.49
2017-05-19T16:02:54.166Z,16.43
2017-05-19T16:04:16.340Z,16.42
2017-05-19T16:05:38.848Z,16.45
2017-05-19T16:07:01.461Z,16.43
2017-05-19T16:08:24.310Z,16.35
2017-05-19T16:09:46.491Z,16.39
2017-05-19T16:11:08.652Z,16.3
2017-05-19T16:12:31.223Z,16.31
2017-05-19T16:13:53.649Z,16.28
2017-05-19T16:15:16.137Z,16.21
2017-05-19T16:16:38.670Z,16.24
2017-05-19T16:18:01.171Z,16.21
2017-05-19T16:19:24.106Z,16.11
2017-05-19T16:20:46.282Z,16.02
2017-05-19T16:22:08.910Z,16.02
2017-05-19T16:23:31.438Z,16.07
2017-05-19T16:24:53.950Z,16.04
2017-05-19T16:26:16.455Z,15.89
2017-05-19T16:27:38.303Z,15.89
2017-05-19T16:28:59.845Z,15.84
2017-05-19T16:30:22.070Z,15.87
2017-05-19T16:31:44.810Z,15.86
2017-05-19T16:33:06.996Z,15.84
2017-05-19T16:34:28.289Z,15.75
2017-05-19T16:35:51.023Z,15.8
2017-05-19T16:37:12.589Z,15.8
2017-05-19T16:38:34.751Z,15.71
2017-05-19T16:39:56.276Z,15.68
2017-05-19T16:41:18.169Z,15.68
2017-05-19T16:42:40.624Z,15.67
2017-05-19T16:44:03.321Z,15.67
2017-05-19T16:45:25.499Z,15.65
2017-05-19T16:46:47.763Z,15.6
2017-05-19T16:48:09.990Z,15.56
2017-05-19T16:49:32.732Z,15.43
2017-05-19T16:50:57.436Z,15.25
2017-05-19T16:52:19.966Z,15.17
2017-05-19T16:53:44.548Z,15.03
2017-05-19T16:55:07.101Z,15.01
2017-05-19T16:56:40.789Z,15.02
2017-05-19T16:58:04.799Z,14.92
2017-05-19T16:59:33.628Z,14.8
2017-05-19T17:00:55.619Z,14.68
2017-05-19T17:02:18.392Z,14.7
2017-05-19T17:03:41.453Z,14.68
2017-05-19T17:05:03.926Z,14.62
2017-05-19T17:06:28.970Z,14.58
2017-05-19T17:07:51.781Z,14.57
2017-05-19T17:09:14.289Z,14.57
2017-05-19T17:10:36.462Z,14.55
2017-05-19T17:11:58.335Z,14.5
2017-05-19T17:13:20.175Z,14.46
2017-05-19T17:14:42.507Z,14.54
2017-05-19T17:16:05.010Z,14.54
2017-05-19T17:17:26.879Z,14.51
2017-05-19T17:18:49.829Z,14.46
2017-05-19T17:20:12.023Z,14.29
2017-05-19T17:21:34.241Z,14.42
2017-05-19T17:22:56.732Z,14.37
2017-05-19T17:24:19.340Z,14.35
2017-05-19T17:25:41.533Z,14.33
2017-05-19T17:27:03.709Z,14.36
2017-05-19T17:28:25.969Z,14.42
2017-05-19T17:29:48.842Z,14.39
2017-05-19T17:31:11.101Z,14.39
2017-05-19T17:32:32.946Z,14.4
2017-05-19T17:33:55.114Z,14.35
2017-05-19T17:35:17.547Z,14.28
2017-05-19T17:36:39.395Z,14.29
2017-05-19T17:38:01.087Z,14.27
2017-05-19T17:39:23.260Z,14.18
2017-05-19T17:40:46.210Z,14.25
2017-05-19T17:42:08.811Z,14.24